createdAt,value
2022-11-23T00:01:21.071Z,92.10
2022-11-23T00:03:49.722Z,91.90
2022-11-23T00:06:16.798Z,91.90
2022-11-23T00:08:43.948Z,92.00
2022-11-23T00:11:11.064Z,92.10
2022-11-23T00:13:40.689Z,92.20
2022-11-23T00:16:14.039Z,92.30
2022-11-23T00:18:40.902Z,92.40
2022-11-23T00:21:12.773Z,92.40
2022-11-23T00:23:39.755Z,92.30
2022-11-23T00:26:07.009Z,92.30
2022-11-23T00:28:34.997Z,92.30
2022-11-23T00:31:02.385Z,92.30
2022-11-23T00:33:29.179Z,92.30
2022-11-23T00:36:03.806Z,92.30
2022-11-23T00:38:30.775Z,92.50
2022-11-23T00:41:02.025Z,92.50
2022-11-23T00:43:29.246Z,92.50
2022-11-23T00:46:10.889Z,92.60
2022-11-23T00:48:37.865Z,92.60
2022-11-23T00:51:05.662Z,92.60
2022-11-23T00:53:33.478Z,92.70
2022-11-23T00:56:00.486Z,92.70
2022-11-23T00:58:27.485Z,92.70
2022-11-23T01:01:12.517Z,92.80
2022-11-23T01:03:40.869Z,92.90
2022-11-23T01:06:12.446Z,92.80
2022-11-23T01:08:39.417Z,92.80
2022-11-23T01:11:07.914Z,92.80
2022-11-23T01:13:36.556Z,92.80
2022-11-23T01:16:05.260Z,92.80
2022-11-23T01:18:32.098Z,92.80
2022-11-23T01:21:01.246Z,92.90
2022-11-23T01:23:31.101Z,92.90
2022-11-23T01:25:58.297Z,92.90
2022-11-23T01:28:25.171Z,92.90
2022-11-23T01:30:52.080Z,92.90
2022-11-23T01:33:18.985Z,92.90
2022-11-23T01:35:47.204Z,92.90
2022-11-23T01:38:18.153Z,92.90
2022-11-23T01:40:45.550Z,92.90
2022-11-23T01:43:15.258Z,92.90
2022-11-23T01:45:55.153Z,93.10
2022-11-23T01:48:25.251Z,92.90
2022-11-23T01:50:52.518Z,92.90
2022-11-23T01:53:20.628Z,92.90
2022-11-23T01:55:49.760Z,93.10
2022-11-23T01:58:18.912Z,92.90
2022-11-23T02:00:47.212Z,92.90
2022-11-23T02:03:17.357Z,93.00
2022-11-23T02:05:45.423Z,93.00
2022-11-23T02:08:16.378Z,93.00
2022-11-23T02:10:44.835Z,92.90
2022-11-23T02:13:12.151Z,92.80
2022-11-23T02:15:38.992Z,92.80
2022-11-23T02:18:09.427Z,92.80
2022-11-23T02:20:36.312Z,92.80
2022-11-23T02:23:30.365Z,92.90
2022-11-23T02:26:14.750Z,92.90
2022-11-23T02:28:46.949Z,92.90
2022-11-23T02:33:58.539Z,92.90
2022-11-23T02:36:37.422Z,93.00
2022-11-23T02:39:14.542Z,93.00
2022-11-23T02:41:56.265Z,93.10
2022-11-23T02:44:53.989Z,93.10
2022-11-23T02:47:20.918Z,93.10
2022-11-23T02:49:48.382Z,93.10
2022-11-23T02:52:16.304Z,93.10
2022-11-23T02:54:43.231Z,93.20
2022-11-23T02:57:10.164Z,93.20
2022-11-23T02:59:39.246Z,93.20
2022-11-23T03:02:06.888Z,93.30
2022-11-23T03:04:33.746Z,93.30
2022-11-23T03:07:00.607Z,93.30
2022-11-23T03:09:28.295Z,93.30
2022-11-23T03:11:55.350Z,93.30
2022-11-23T03:14:24.433Z,93.30
2022-11-23T03:16:58.340Z,93.30
2022-11-23T03:19:25.380Z,93.30
2022-11-23T03:21:53.462Z,93.30
2022-11-23T03:24:20.423Z,93.40
2022-11-23T03:26:48.372Z,93.40
2022-11-23T03:29:19.588Z,93.40
2022-11-23T03:31:47.183Z,93.40
2022-11-23T03:34:15.719Z,93.40
2022-11-23T03:36:44.241Z,93.40
2022-11-23T03:39:11.219Z,93.40
2022-11-23T03:42:01.386Z,93.50
2022-11-23T03:44:32.775Z,93.60
2022-11-23T03:46:59.720Z,93.60
2022-11-23T03:49:28.131Z,93.60
2022-11-23T03:51:55.211Z,93.40
2022-11-23T03:54:22.058Z,93.70
2022-11-23T03:56:48.916Z,93.60
2022-11-23T03:59:18.035Z,93.70
2022-11-23T04:01:44.969Z,93.70
2022-11-23T04:04:19.327Z,93.80
2022-11-23T04:07:09.071Z,93.70
2022-11-23T04:09:41.245Z,93.70
2022-11-23T04:12:23.185Z,93.80
2022-11-23T04:14:50.366Z,94.00
2022-11-23T04:17:18.121Z,94.00
2022-11-23T04:19:45.177Z,94.00
2022-11-23T04:22:13.192Z,94.00
2022-11-23T04:24:42.311Z,93.90
2022-11-23T04:27:09.673Z,93.80
2022-11-23T04:29:37.394Z,93.70
2022-11-23T04:32:04.402Z,93.60
2022-11-23T04:34:31.382Z,93.50
2022-11-23T04:37:01.164Z,93.50
2022-11-23T04:39:33.151Z,93.50
2022-11-23T04:42:15.316Z,93.40
2022-11-23T04:44:48.374Z,93.50
2022-11-23T04:47:17.112Z,93.50
2022-11-23T04:49:46.002Z,93.50
2022-11-23T04:52:12.970Z,93.50
2022-11-23T04:54:46.425Z,93.60
2022-11-23T04:57:13.669Z,93.60
2022-11-23T04:59:42.205Z,93.60
2022-11-23T05:02:09.187Z,93.60
2022-11-23T05:04:48.319Z,93.50
2022-11-23T05:07:17.104Z,93.50
2022-11-23T05:09:49.853Z,93.50
2022-11-23T05:12:18.634Z,93.50
2022-11-23T05:14:45.633Z,93.60
2022-11-23T05:17:16.934Z,93.60
2022-11-23T05:19:45.773Z,93.70
2022-11-23T05:22:13.452Z,93.70
2022-11-23T05:24:41.700Z,93.70
2022-11-23T05:27:11.313Z,93.80
2022-11-23T05:29:38.850Z,93.80
2022-11-23T05:32:07.206Z,93.80
2022-11-23T05:34:34.114Z,93.80
2022-11-23T05:37:03.036Z,93.80
2022-11-23T05:39:30.414Z,93.80
2022-11-23T05:41:59.392Z,94.00
2022-11-23T05:44:33.873Z,93.80
2022-11-23T05:47:00.838Z,93.80
2022-11-23T05:49:32.082Z,93.80
2022-11-23T05:52:00.663Z,93.90
2022-11-23T05:54:29.244Z,93.90
2022-11-23T05:57:11.781Z,94.00
2022-11-23T05:59:42.461Z,94.10
2022-11-23T06:02:14.336Z,94.20
2022-11-23T06:04:41.177Z,94.20
2022-11-23T06:07:11.769Z,94.20
2022-11-23T06:10:06.046Z,94.10
2022-11-23T06:12:34.861Z,94.00
2022-11-23T06:15:04.032Z,93.90
2022-11-23T06:17:31.391Z,93.80
2022-11-23T06:20:04.298Z,93.70
2022-11-23T06:22:31.199Z,93.70
2022-11-23T06:25:01.339Z,93.60
2022-11-23T06:27:42.351Z,93.50
2022-11-23T06:30:18.190Z,93.40
2022-11-23T06:32:46.759Z,93.30
2022-11-23T06:35:14.055Z,93.20
2022-11-23T06:37:43.723Z,93.20
2022-11-23T06:40:12.567Z,93.20
2022-11-23T06:42:40.504Z,93.20
2022-11-23T06:45:29.566Z,93.40
2022-11-23T06:48:00.966Z,93.40
2022-11-23T06:50:28.141Z,93.30
2022-11-23T06:52:58.385Z,93.10
2022-11-23T06:55:40.328Z,92.90
2022-11-23T06:58:08.721Z,92.80
2022-11-23T07:00:35.789Z,92.70
2022-11-23T07:03:03.534Z,92.60
2022-11-23T07:05:43.608Z,92.70
2022-11-23T07:08:11.174Z,92.60
2022-11-23T07:10:38.721Z,92.70
2022-11-23T07:13:06.185Z,92.70
2022-11-23T07:15:34.942Z,92.80
2022-11-23T07:18:02.485Z,92.80
2022-11-23T07:20:29.397Z,92.90
2022-11-23T07:23:07.214Z,92.90
2022-11-23T07:25:35.364Z,93.00
2022-11-23T07:28:03.045Z,93.00
2022-11-23T07:30:30.782Z,93.00
2022-11-23T07:33:03.573Z,93.00
2022-11-23T07:35:32.122Z,93.00
2022-11-23T07:37:59.535Z,93.10
2022-11-23T07:40:26.744Z,93.20
2022-11-23T07:42:53.678Z,93.20
2022-11-23T07:45:20.546Z,93.30
2022-11-23T07:48:04.093Z,93.40
2022-11-23T07:50:31.082Z,93.40
2022-11-23T07:52:58.051Z,93.50
2022-11-23T07:55:25.094Z,93.60
2022-11-23T07:57:53.452Z,93.90
2022-11-23T08:00:23.921Z,93.70
2022-11-23T08:03:19.448Z,93.80
2022-11-23T08:05:37.688Z,93.80
2022-11-23T08:08:04.752Z,93.80
2022-11-23T08:10:31.849Z,93.90
2022-11-23T08:12:59.567Z,94.00
2022-11-23T08:15:28.205Z,94.00
2022-11-23T08:17:59.106Z,94.10
2022-11-23T08:20:26.405Z,94.10
2022-11-23T08:22:55.971Z,94.10
2022-11-23T08:25:26.637Z,94.20
2022-11-23T08:28:01.477Z,94.20
2022-11-23T08:30:29.032Z,94.20
2022-11-23T08:32:56.002Z,94.20
2022-11-23T08:35:22.956Z,94.20
2022-11-23T08:37:49.922Z,94.20
2022-11-23T08:40:22.094Z,94.20
2022-11-23T08:42:51.771Z,94.20
2022-11-23T08:45:18.674Z,94.20
2022-11-23T08:47:45.529Z,94.20
2022-11-23T08:50:12.618Z,94.20
2022-11-23T08:52:39.547Z,94.20
2022-11-23T08:55:06.891Z,94.30
2022-11-23T08:57:34.764Z,94.30
2022-11-23T09:00:01.877Z,94.40
2022-11-23T09:02:28.752Z,94.40
2022-11-23T09:04:55.632Z,94.40
2022-11-23T09:07:22.578Z,94.40
2022-11-23T09:09:49.443Z,94.50
2022-11-23T09:12:16.356Z,94.60
2022-11-23T09:14:43.431Z,94.60
2022-11-23T09:17:10.252Z,94.60
2022-11-23T09:19:37.127Z,94.70
2022-11-23T09:22:04.010Z,94.70
2022-11-23T09:24:31.175Z,94.70
2022-11-23T09:26:58.521Z,94.80
2022-11-23T09:29:25.635Z,94.80
2022-11-23T09:31:52.963Z,94.90
2022-11-23T09:34:20.021Z,94.90
2022-11-23T09:36:47.603Z,94.90
2022-11-23T09:39:14.678Z,94.80
2022-11-23T09:41:47.350Z,94.70
2022-11-23T09:44:39.342Z,94.60
2022-11-23T09:47:09.302Z,94.50
2022-11-23T09:49:42.094Z,94.40
2022-11-23T09:52:19.630Z,94.50
2022-11-23T09:54:46.628Z,94.50
2022-11-23T09:57:20.000Z,94.50
2022-11-23T09:59:53.778Z,94.50
2022-11-23T10:02:25.403Z,94.40
2022-11-23T10:04:52.855Z,94.40
2022-11-23T10:07:31.850Z,94.40
2022-11-23T10:10:27.516Z,94.40
2022-11-23T10:13:18.734Z,94.30
2022-11-23T10:16:04.421Z,94.30
2022-11-23T10:18:37.602Z,94.10
2022-11-23T10:21:56.569Z,94.10
2022-11-23T10:24:28.656Z,94.00
2022-11-23T10:26:55.552Z,93.90
2022-11-23T10:29:40.653Z,93.70
2022-11-23T10:32:12.858Z,93.60
2022-11-23T10:34:49.623Z,93.60
2022-11-23T10:37:16.776Z,93.50
2022-11-23T10:39:43.677Z,93.50
2022-11-23T10:42:45.821Z,93.50
2022-11-23T10:45:23.682Z,93.50
2022-11-23T10:47:55.405Z,93.30
2022-11-23T10:50:33.697Z,93.20
2022-11-23T10:53:14.236Z,92.90
2022-11-23T10:55:58.206Z,92.80
2022-11-23T10:58:35.089Z,92.40
2022-11-23T11:01:07.345Z,92.30
2022-11-23T11:03:34.780Z,92.20
2022-11-23T11:06:10.407Z,92.00
2022-11-23T11:08:50.088Z,91.80
2022-11-23T11:11:26.823Z,91.50
2022-11-23T11:14:13.494Z,91.40
2022-11-23T11:16:53.642Z,91.30
2022-11-23T11:19:28.091Z,91.30
2022-11-23T11:21:55.362Z,91.20
2022-11-23T11:24:38.819Z,91.10
2022-11-23T11:27:11.744Z,90.80
2022-11-23T11:29:47.450Z,90.60
2022-11-23T11:32:39.324Z,90.20
2022-11-23T11:35:23.484Z,90.00
2022-11-23T11:37:51.155Z,90.10
2022-11-23T11:40:24.020Z,90.00
2022-11-23T11:43:10.643Z,89.30
2022-11-23T11:48:57.811Z,88.20
2022-11-23T11:51:41.966Z,88.10
2022-11-23T11:54:22.911Z,87.70
2022-11-23T11:56:52.476Z,86.60
2022-11-23T11:59:29.024Z,86.00
2022-11-23T12:01:56.001Z,85.50
2022-11-23T12:04:41.924Z,85.20
2022-11-23T12:07:33.130Z,84.60
2022-11-23T12:10:18.746Z,84.30
2022-11-23T12:12:48.241Z,83.80
2022-11-23T12:15:47.825Z,83.20
2022-11-23T12:18:28.417Z,82.30
2022-11-23T12:21:04.553Z,82.10
2022-11-23T12:23:46.935Z,81.70
2022-11-23T12:26:32.045Z,80.70
2022-11-23T12:29:10.824Z,80.20
2022-11-23T12:31:50.277Z,79.50
2022-11-23T12:34:55.027Z,78.90
2022-11-23T12:37:40.709Z,78.10
2022-11-23T12:40:07.658Z,78.20
2022-11-23T12:42:53.964Z,77.50
2022-11-23T12:45:40.026Z,76.40
2022-11-23T12:48:44.978Z,76.20
2022-11-23T12:51:17.694Z,75.80
2022-11-23T12:54:00.452Z,75.50
2022-11-23T12:56:46.193Z,75.20
2022-11-23T12:59:13.155Z,75.10
2022-11-23T13:01:42.927Z,74.50
2022-11-23T13:04:35.582Z,73.70
2022-11-23T13:07:39.999Z,72.30
2022-11-23T13:10:07.923Z,72.40
2022-11-23T13:13:19.342Z,72.10
2022-11-23T13:15:51.210Z,71.10
2022-11-23T13:18:39.834Z,71.40
2022-11-23T13:21:34.265Z,71.00
2022-11-23T13:24:01.531Z,70.60
2022-11-23T13:26:28.907Z,70.40
2022-11-23T13:28:59.195Z,70.30
2022-11-23T13:31:27.248Z,70.30
2022-11-23T13:33:55.752Z,69.90
2022-11-23T13:37:04.401Z,69.70
2022-11-23T13:39:45.345Z,69.20
2022-11-23T13:42:12.421Z,68.80
2022-11-23T13:44:39.377Z,69.00
2022-11-23T13:47:26.477Z,68.60
2022-11-23T13:49:54.230Z,68.20
2022-11-23T13:52:21.271Z,68.10
2022-11-23T13:55:08.838Z,68.00
2022-11-23T13:57:41.105Z,67.80
2022-11-23T14:00:45.839Z,68.00
2022-11-23T14:03:50.268Z,67.70
2022-11-23T14:06:27.861Z,68.70
2022-11-23T14:09:06.800Z,69.20
2022-11-23T14:11:37.124Z,69.80
2022-11-23T14:14:04.050Z,70.50
2022-11-23T14:17:07.788Z,70.70
2022-11-23T14:19:41.434Z,70.70
2022-11-23T14:22:30.441Z,71.40
2022-11-23T14:25:31.856Z,71.30
2022-11-23T14:28:52.971Z,71.20
2022-11-23T14:31:34.966Z,70.90
2022-11-23T14:34:10.832Z,70.90
2022-11-23T14:36:43.879Z,70.90
2022-11-23T14:39:48.042Z,70.80
2022-11-23T14:42:17.169Z,71.00
2022-11-23T14:44:44.664Z,71.60
2022-11-23T14:47:12.153Z,71.90
2022-11-23T14:49:51.989Z,72.40
2022-11-23T14:52:24.060Z,72.60
2022-11-23T14:54:52.215Z,72.90
2022-11-23T14:57:20.774Z,73.20
2022-11-23T14:59:56.373Z,73.10
2022-11-23T15:02:36.241Z,73.00
2022-11-23T15:05:05.798Z,73.00
2022-11-23T15:07:53.693Z,73.20
2022-11-23T15:10:39.315Z,73.10
2022-11-23T15:13:21.845Z,73.30
2022-11-23T15:15:52.353Z,73.40
2022-11-23T15:18:37.925Z,73.70
2022-11-23T15:21:11.053Z,73.80
2022-11-23T15:23:48.435Z,73.90
2022-11-23T15:26:46.084Z,73.90
2022-11-23T15:29:31.399Z,73.90
2022-11-23T15:34:46.273Z,74.10
2022-11-23T15:37:13.134Z,74.20
2022-11-23T15:39:39.920Z,74.30
2022-11-23T15:42:07.213Z,74.40
2022-11-23T15:44:35.847Z,75.00
2022-11-23T15:47:06.904Z,74.60
2022-11-23T15:49:39.729Z,74.70
2022-11-23T15:52:06.722Z,74.80
2022-11-23T15:54:37.355Z,75.00
2022-11-23T15:57:08.020Z,75.10
2022-11-23T15:59:42.758Z,75.20
2022-11-23T16:02:28.626Z,75.50
2022-11-23T16:05:17.692Z,75.70
2022-11-23T16:08:01.326Z,76.10
2022-11-23T16:10:28.926Z,76.30
2022-11-23T16:12:59.679Z,76.70
2022-11-23T16:15:38.976Z,77.00
2022-11-23T16:18:15.983Z,77.20
2022-11-23T16:20:47.077Z,77.40
2022-11-23T16:23:20.502Z,77.60
2022-11-23T16:25:53.864Z,77.90
2022-11-23T16:28:32.615Z,78.10
2022-11-23T16:30:59.833Z,78.40
2022-11-23T16:33:27.113Z,78.70
2022-11-23T16:35:54.190Z,78.90
2022-11-23T16:38:21.257Z,79.20
2022-11-23T16:40:48.361Z,79.40
2022-11-23T16:43:16.131Z,79.60
2022-11-23T16:45:44.667Z,79.90
2022-11-23T16:48:41.319Z,80.10
2022-11-23T16:51:10.950Z,80.40
2022-11-23T16:54:07.765Z,80.60
2022-11-23T16:56:25.792Z,80.80
2022-11-23T16:58:52.715Z,81.10
2022-11-23T17:01:21.847Z,81.20
2022-11-23T17:03:49.091Z,81.40
2022-11-23T17:06:17.429Z,81.60
2022-11-23T17:08:45.094Z,81.70
2022-11-23T17:11:16.313Z,81.80
2022-11-23T17:13:43.325Z,82.00
2022-11-23T17:16:20.571Z,82.10
2022-11-23T17:18:47.523Z,82.30
2022-11-23T17:21:14.404Z,82.30
2022-11-23T17:23:42.774Z,82.40
2022-11-23T17:26:29.112Z,82.50
2022-11-23T17:28:56.125Z,82.70
2022-11-23T17:31:23.389Z,82.70
2022-11-23T17:33:50.542Z,82.80
2022-11-23T17:36:17.442Z,82.90
2022-11-23T17:38:47.094Z,83.00
2022-11-23T17:41:14.609Z,83.10
2022-11-23T17:43:41.702Z,83.10
2022-11-23T17:46:27.080Z,83.20
2022-11-23T17:48:58.240Z,83.60
2022-11-23T17:51:25.241Z,83.50
2022-11-23T17:53:52.251Z,83.60
2022-11-23T17:56:20.765Z,83.70
2022-11-23T17:58:47.767Z,83.80
2022-11-23T18:01:15.824Z,83.70
2022-11-23T18:03:43.579Z,83.80
2022-11-23T18:06:18.057Z,84.10
2022-11-23T18:08:45.362Z,83.90
2022-11-23T18:11:12.280Z,83.80
2022-11-23T18:13:39.383Z,83.80
2022-11-23T18:16:06.561Z,83.80
2022-11-23T18:18:33.938Z,83.80
2022-11-23T18:21:00.921Z,83.80
2022-11-23T18:23:28.414Z,83.90
2022-11-23T18:26:13.420Z,83.90
2022-11-23T18:28:40.372Z,84.00
2022-11-23T18:31:07.323Z,84.00
2022-11-23T18:33:34.284Z,84.10
2022-11-23T18:36:05.354Z,84.20
2022-11-23T18:38:33.634Z,84.40
2022-11-23T18:41:01.145Z,84.50
2022-11-23T18:43:28.391Z,84.60
2022-11-23T18:45:55.416Z,84.60
2022-11-23T18:48:22.503Z,84.70
2022-11-23T18:50:49.424Z,84.90
2022-11-23T18:53:16.429Z,85.00
2022-11-23T18:55:43.655Z,85.10
2022-11-23T18:58:11.179Z,85.20
2022-11-23T19:00:38.290Z,85.40
2022-11-23T19:03:05.300Z,85.40
2022-11-23T19:05:34.015Z,85.40
2022-11-23T19:08:09.798Z,85.60
2022-11-23T19:10:38.212Z,85.70
2022-11-23T19:13:06.079Z,85.70
2022-11-23T19:15:34.431Z,85.90
2022-11-23T19:22:46.896Z,85.40
2022-11-23T19:25:14.780Z,85.80
2022-11-23T19:27:42.276Z,86.20
2022-11-23T19:30:10.096Z,86.40
2022-11-23T19:32:37.793Z,86.40
2022-11-23T19:35:05.017Z,86.60
2022-11-23T19:37:32.115Z,86.80
2022-11-23T19:39:59.045Z,87.30
2022-11-23T19:42:25.946Z,87.10
2022-11-23T19:44:53.845Z,87.00
2022-11-23T19:47:22.925Z,86.80
2022-11-23T19:49:50.123Z,86.40
2022-11-23T19:52:17.147Z,86.50
2022-11-23T19:54:44.468Z,86.40
2022-11-23T19:57:12.209Z,86.00
2022-11-23T19:59:39.168Z,85.90
2022-11-23T20:02:06.172Z,85.70
2022-11-23T20:04:33.758Z,85.40
2022-11-23T20:07:00.693Z,85.20
2022-11-23T20:09:28.038Z,85.10
2022-11-23T20:11:54.995Z,85.10
2022-11-23T20:14:22.027Z,85.10
2022-11-23T20:16:49.712Z,85.10
2022-11-23T20:19:16.953Z,85.10
2022-11-23T20:21:43.870Z,85.10
2022-11-23T20:24:14.120Z,85.20
2022-11-23T20:26:47.226Z,85.20
2022-11-23T20:29:14.319Z,85.20
2022-11-23T20:31:41.826Z,85.20
2022-11-23T20:34:12.337Z,85.30
2022-11-23T20:36:41.355Z,85.40
2022-11-23T20:39:09.907Z,85.50
2022-11-23T20:41:37.298Z,85.70
2022-11-23T20:44:13.614Z,86.20
2022-11-23T20:49:29.897Z,85.70
2022-11-23T20:51:57.410Z,85.80
2022-11-23T20:54:25.413Z,85.80
2022-11-23T20:56:52.401Z,85.90
2022-11-23T20:59:21.454Z,86.00
2022-11-23T21:01:50.980Z,86.10
2022-11-23T21:04:20.369Z,86.20
2022-11-23T21:06:47.281Z,86.20
2022-11-23T21:09:14.225Z,86.30
2022-11-23T21:11:59.872Z,86.40
2022-11-23T21:14:31.552Z,86.50
2022-11-23T21:16:59.400Z,86.60
2022-11-23T21:19:34.009Z,86.70
2022-11-23T21:22:09.121Z,86.80
2022-11-23T21:24:36.659Z,86.90
2022-11-23T21:27:04.673Z,87.00
2022-11-23T21:29:31.731Z,87.20
2022-11-23T21:31:58.583Z,87.20
2022-11-23T21:34:26.523Z,87.20
2022-11-23T21:36:53.959Z,87.20
2022-11-23T21:39:20.880Z,87.30
2022-11-23T21:41:49.611Z,87.40
2022-11-23T21:44:16.883Z,87.30
2022-11-23T21:46:43.830Z,87.40
2022-11-23T21:49:10.974Z,87.40
2022-11-23T21:51:38.081Z,87.50
2022-11-23T21:54:06.511Z,87.50
2022-11-23T21:56:33.471Z,87.60
2022-11-23T21:59:00.404Z,87.50
2022-11-23T22:01:29.110Z,87.60
2022-11-23T22:03:57.981Z,87.60
2022-11-23T22:06:24.910Z,87.50
2022-11-23T22:08:53.004Z,87.60
2022-11-23T22:11:22.983Z,87.60
2022-11-23T22:13:56.509Z,87.70
2022-11-23T22:16:24.427Z,87.70
2022-11-23T22:18:55.530Z,87.70
2022-11-23T22:21:24.337Z,87.50
2022-11-23T22:23:51.345Z,87.50
2022-11-23T22:26:18.821Z,87.40
2022-11-23T22:28:49.969Z,87.30
2022-11-23T22:31:20.769Z,87.30
2022-11-23T22:33:47.934Z,87.20
2022-11-23T22:36:22.249Z,87.00
2022-11-23T22:39:01.745Z,86.90
2022-11-23T22:41:32.090Z,86.80
2022-11-23T22:44:00.614Z,86.60
2022-11-23T22:46:28.213Z,86.50
2022-11-23T22:48:59.729Z,86.40
2022-11-23T22:51:28.156Z,86.30
2022-11-23T22:53:58.738Z,86.30
2022-11-23T22:56:26.030Z,86.30
2022-11-23T22:58:53.250Z,86.50
2022-11-23T23:01:22.011Z,86.50
2022-11-23T23:03:48.962Z,86.10
2022-11-23T23:06:18.057Z,85.60
2022-11-23T23:08:49.108Z,85.30
2022-11-23T23:11:16.159Z,85.00
2022-11-23T23:13:43.079Z,85.00
2022-11-23T23:16:13.710Z,85.20
2022-11-23T23:18:41.393Z,85.20
2022-11-23T23:21:16.076Z,85.10
2022-11-23T23:23:48.445Z,84.90
2022-11-23T23:26:17.276Z,84.70
2022-11-23T23:28:44.229Z,84.60
2022-11-23T23:31:12.838Z,84.60
2022-11-23T23:33:39.929Z,84.70
2022-11-23T23:36:07.614Z,84.90
2022-11-23T23:38:34.575Z,85.40
2022-11-23T23:41:01.455Z,86.10
2022-11-23T23:43:28.878Z,86.40
2022-11-23T23:46:02.732Z,87.00
2022-11-23T23:48:30.762Z,87.60
2022-11-23T23:50:57.600Z,88.00
2022-11-23T23:53:24.452Z,88.40
2022-11-23T23:55:58.382Z,88.70
2022-11-23T23:58:25.421Z,89.10
